CheckWX is a tool to help pilots better visualize weather data.  It is not intended as a substitute for an official pre-flight weather briefing.

21:04:37 UTC

KFLG METAR
Flagstaff Pulliam Airport
Flagstaff, Arizona, USA
Current

1 hour ago

KFLG 041957Z 19007G18KT 150V230 10SM CLR 28/M02 A3021 RMK AO2 SLP123 T02831022
Observed
Jun-4 @ 19:57 UTC
Wind
  • 190° at 7 KTS
  • Gusting to 18 KTS
Visibility
Flight Rules
VFR
Cloud Levels
  • Clear skies
Temperature
28°C / 82°F
Dewpoint
-2°C / 28°F
Humidity
14%
Altimeter
30.21" Hg
Pressure
1023.02 hPa
Previous

2 hours ago

KFLG 041857Z 21009G15KT 180V260 10SM CLR 27/M03 A3023 RMK AO2 WSHFT 1755 SLP131 T02721033
Observed
Jun-4 @ 18:57 UTC
Wind
  • 210° at 9 KTS
  • Gusting to 15 KTS
Visibility
Flight Rules
VFR
Cloud Levels
  • Clear skies
Temperature
27°C / 81°F
Dewpoint
-3°C / 27°F
Humidity
14%
Altimeter
30.23" Hg
Pressure
1023.72 hPa
Previous

3 hours ago

KFLG 041815Z 19011G18KT 170V230 10SM CLR 28/M06 A3024 RMK AO2 WSHFT 1755 T02781061
Observed
Jun-4 @ 18:15 UTC
Wind
  • 190° at 11 KTS
  • Gusting to 18 KTS
Visibility
Flight Rules
VFR
Cloud Levels
  • Clear skies
Temperature
28°C / 82°F
Dewpoint
-6°C / 21°F
Humidity
10%
Altimeter
30.24" Hg
Pressure
1024.02 hPa